sensor_id;sensor_type;location;lat;lon;timestamp;pressure;altitude;pressure_sealevel;temperature;humidity
35989;BME280;22064;42.672;23.282;2023-05-27T00:00:05;94733.66;;;14.55;100.00
35989;BME280;22064;42.672;23.282;2023-05-27T00:02:32;94745.16;;;14.34;100.00
35989;BME280;22064;42.672;23.282;2023-05-27T00:04:58;94746.72;;;14.40;100.00
35989;BME280;22064;42.672;23.282;2023-05-27T00:07:24;94761.94;;;14.33;100.00
35989;BME280;22064;42.672;23.282;2023-05-27T00:09:51;94751.69;;;14.31;100.00
35989;BME280;22064;42.672;23.282;2023-05-27T00:12:17;94762.69;;;14.13;100.00
35989;BME280;22064;42.672;23.282;2023-05-27T00:14:43;94757.19;;;14.09;100.00
35989;BME280;22064;42.672;23.282;2023-05-27T00:17:09;94757.97;;;14.15;100.00
35989;BME280;22064;42.672;23.282;2023-05-27T00:19:42;94751.44;;;14.18;100.00
35989;BME280;22064;42.672;23.282;2023-05-27T00:22:11;94756.91;;;14.26;100.00
35989;BME280;22064;42.672;23.282;2023-05-27T00:24:37;94754.06;;;14.18;100.00
35989;BME280;22064;42.672;23.282;2023-05-27T00:27:05;94750.09;;;14.20;100.00
35989;BME280;22064;42.672;23.282;2023-05-27T00:29:33;94753.78;;;14.24;100.00
35989;BME280;22064;42.672;23.282;2023-05-27T00:32:03;94745.94;;;14.24;100.00
35989;BME280;22064;42.672;23.282;2023-05-27T00:34:31;94746.72;;;14.20;100.00
35989;BME280;22064;42.672;23.282;2023-05-27T00:36:57;94738.84;;;14.09;100.00
35989;BME280;22064;42.672;23.282;2023-05-27T00:39:23;94730.47;;;14.07;100.00
35989;BME280;22064;42.672;23.282;2023-05-27T00:41:50;94722.63;;;14.13;100.00
35989;BME280;22064;42.672;23.282;2023-05-27T00:44:17;94721.06;;;14.12;100.00
35989;BME280;22064;42.672;23.282;2023-05-27T00:46:44;94719.47;;;14.10;100.00
35989;BME280;22064;42.672;23.282;2023-05-27T00:49:10;94714.75;;;14.07;100.00
35989;BME280;22064;42.672;23.282;2023-05-27T00:51:38;94703.75;;;14.00;100.00
35989;BME280;22064;42.672;23.282;2023-05-27T00:54:04;94703.53;;;14.02;100.00
35989;BME280;22064;42.672;23.282;2023-05-27T00:56:31;94715.81;;;14.17;100.00
35989;BME280;22064;42.672;23.282;2023-05-27T00:58:58;94703.78;;;14.16;100.00
35989;BME280;22064;42.672;23.282;2023-05-27T01:01:24;94699.31;;;14.21;100.00
35989;BME280;22064;42.672;23.282;2023-05-27T01:03:52;94686.72;;;14.23;100.00
35989;BME280;22064;42.672;23.282;2023-05-27T01:06:46;94686.47;;;14.25;100.00
35989;BME280;22064;42.672;23.282;2023-05-27T01:09:26;94688.31;;;14.24;100.00
35989;BME280;22064;42.672;23.282;2023-05-27T01:14:39;94680.19;;;14.31;100.00
35989;BME280;22064;42.672;23.282;2023-05-27T01:17:09;94678.88;;;14.33;100.00
35989;BME280;22064;42.672;23.282;2023-05-27T01:19:39;94674.69;;;14.38;100.00
35989;BME280;22064;42.672;23.282;2023-05-27T01:22:14;94671.53;;;14.36;100.00
35989;BME280;22064;42.672;23.282;2023-05-27T01:24:41;94658.16;;;14.42;100.00
35989;BME280;22064;42.672;23.282;2023-05-27T01:27:11;94658.97;;;14.58;100.00
35989;BME280;22064;42.672;23.282;2023-05-27T01:29:42;94654.47;;;14.64;100.00
35989;BME280;22064;42.672;23.282;2023-05-27T01:32:19;94654.75;;;14.57;100.00
35989;BME280;22064;42.672;23.282;2023-05-27T01:37:25;94645.53;;;14.75;100.00
35989;BME280;22064;42.672;23.282;2023-05-27T01:39:53;94641.84;;;14.86;100.00
35989;BME280;22064;42.672;23.282;2023-05-27T01:42:19;94635.00;;;14.95;100.00
35989;BME280;22064;42.672;23.282;2023-05-27T01:44:46;94638.06;;;15.08;100.00
35989;BME280;22064;42.672;23.282;2023-05-27T01:47:12;94639.59;;;15.14;100.00
35989;BME280;22064;42.672;23.282;2023-05-27T01:49:38;94630.47;;;15.11;100.00
35989;BME280;22064;42.672;23.282;2023-05-27T01:52:04;94641.03;;;14.96;100.00
35989;BME280;22064;42.672;23.282;2023-05-27T01:54:30;94648.16;;;14.75;100.00
35989;BME280;22064;42.672;23.282;2023-05-27T01:56:56;94659.75;;;14.43;100.00
35989;BME280;22064;42.672;23.282;2023-05-27T01:59:22;94649.81;;;14.04;100.00
35989;BME280;22064;42.672;23.282;2023-05-27T02:01:48;94646.97;;;14.06;100.00
35989;BME280;22064;42.672;23.282;2023-05-27T02:04:14;94656.38;;;14.12;100.00
35989;BME280;22064;42.672;23.282;2023-05-27T02:06:40;94649.56;;;13.85;100.00
35989;BME280;22064;42.672;23.282;2023-05-27T02:09:06;94650.88;;;13.83;100.00
35989;BME280;22064;42.672;23.282;2023-05-27T02:11:32;94652.47;;;13.74;100.00
35989;BME280;22064;42.672;23.282;2023-05-27T02:13:58;94654.78;;;13.70;100.00
35989;BME280;22064;42.672;23.282;2023-05-27T02:16:26;94645.88;;;13.61;100.00
35989;BME280;22064;42.672;23.282;2023-05-27T02:18:52;94647.44;;;13.52;100.00
35989;BME280;22064;42.672;23.282;2023-05-27T02:21:18;94651.63;;;13.48;100.00
35989;BME280;22064;42.672;23.282;2023-05-27T02:23:44;94664.16;;;13.46;100.00
35989;BME280;22064;42.672;23.282;2023-05-27T02:26:10;94656.06;;;13.42;100.00
35989;BME280;22064;42.672;23.282;2023-05-27T02:28:36;94645.03;;;13.30;100.00
35989;BME280;22064;42.672;23.282;2023-05-27T02:31:02;94659.97;;;13.34;100.00
35989;BME280;22064;42.672;23.282;2023-05-27T02:33:28;94673.56;;;13.31;100.00
35989;BME280;22064;42.672;23.282;2023-05-27T02:35:54;94664.84;;;13.21;100.00
35989;BME280;22064;42.672;23.282;2023-05-27T02:38:19;94654.88;;;13.07;100.00
35989;BME280;22064;42.672;23.282;2023-05-27T02:40:46;94665.09;;;13.14;100.00
35989;BME280;22064;42.672;23.282;2023-05-27T02:43:13;94671.94;;;13.15;100.00
35989;BME280;22064;42.672;23.282;2023-05-27T02:45:39;94670.34;;;13.14;100.00
35989;BME280;22064;42.672;23.282;2023-05-27T02:48:07;94668.00;;;13.17;100.00
35989;BME280;22064;42.672;23.282;2023-05-27T02:50:33;94672.94;;;13.14;100.00
35989;BME280;22064;42.672;23.282;2023-05-27T02:52:59;94665.84;;;13.04;100.00
35989;BME280;22064;42.672;23.282;2023-05-27T02:55:25;94676.06;;;13.11;100.00
35989;BME280;22064;42.672;23.282;2023-05-27T02:57:51;94664.53;;;13.02;100.00
35989;BME280;22064;42.672;23.282;2023-05-27T03:00:17;94658.28;;;13.08;100.00
35989;BME280;22064;42.672;23.282;2023-05-27T03:02:43;94661.78;;;13.29;100.00
35989;BME280;22064;42.672;23.282;2023-05-27T03:05:09;94653.91;;;13.18;100.00
35989;BME280;22064;42.672;23.282;2023-05-27T03:07:35;94655.69;;;13.13;100.00
35989;BME280;22064;42.672;23.282;2023-05-27T03:10:01;94670.88;;;13.16;100.00
35989;BME280;22064;42.672;23.282;2023-05-27T03:12:27;94662.97;;;13.01;100.00
35989;BME280;22064;42.672;23.282;2023-05-27T03:14:53;94665.84;;;13.04;100.00
35989;BME280;22064;42.672;23.282;2023-05-27T03:17:19;94671.09;;;12.99;100.00
35989;BME280;22064;42.672;23.282;2023-05-27T03:19:46;94669.97;;;12.85;100.00
35989;BME280;22064;42.672;23.282;2023-05-27T03:22:12;94646.94;;;12.77;100.00
35989;BME280;22064;42.672;23.282;2023-05-27T03:24:40;94665.28;;;12.92;100.00
35989;BME280;22064;42.672;23.282;2023-05-27T03:27:06;94659.56;;;12.90;100.00
35989;BME280;22064;42.672;23.282;2023-05-27T03:29:35;94666.06;;;12.87;100.00
35989;BME280;22064;42.672;23.282;2023-05-27T03:32:02;94666.88;;;12.98;100.00
35989;BME280;22064;42.672;23.282;2023-05-27T03:34:29;94668.25;;;13.16;100.00
35989;BME280;22064;42.672;23.282;2023-05-27T03:36:55;94661.72;;;13.24;100.00
35989;BME280;22064;42.672;23.282;2023-05-27T03:39:30;94672.28;;;13.34;100.00
35989;BME280;22064;42.672;23.282;2023-05-27T03:41:58;94679.81;;;13.25;100.00
35989;BME280;22064;42.672;23.282;2023-05-27T03:44:24;94677.47;;;13.29;100.00
35989;BME280;22064;42.672;23.282;2023-05-27T03:46:50;94670.72;;;13.43;100.00
35989;BME280;22064;42.672;23.282;2023-05-27T03:49:16;94678.63;;;13.69;100.00
35989;BME280;22064;42.672;23.282;2023-05-27T03:51:42;94677.03;;;13.83;100.00
35989;BME280;22064;42.672;23.282;2023-05-27T03:54:08;94676.81;;;14.00;100.00
35989;BME280;22064;42.672;23.282;2023-05-27T03:56:34;94685.44;;;14.26;100.00
35989;BME280;22064;42.672;23.282;2023-05-27T03:59:00;94683.56;;;14.42;100.00
35989;BME280;22064;42.672;23.282;2023-05-27T04:01:28;94680.47;;;14.55;100.00
35989;BME280;22064;42.672;23.282;2023-05-27T04:03:54;94675.97;;;14.71;100.00
35989;BME280;22064;42.672;23.282;2023-05-27T04:06:20;94676.50;;;14.68;100.00
35989;BME280;22064;42.672;23.282;2023-05-27T04:08:46;94667.84;;;14.42;100.00
35989;BME280;22064;42.672;23.282;2023-05-27T04:11:12;94670.72;;;14.45;100.00
35989;BME280;22064;42.672;23.282;2023-05-27T04:13:38;94670.22;;;14.43;100.00
35989;BME280;22064;42.672;23.282;2023-05-27T04:16:05;94663.94;;;14.49;100.00
35989;BME280;22064;42.672;23.282;2023-05-27T04:18:33;94661.31;;;14.54;100.00
35989;BME280;22064;42.672;23.282;2023-05-27T04:20:59;94670.97;;;14.69;100.00
35989;BME280;22064;42.672;23.282;2023-05-27T04:23:27;94673.81;;;14.88;100.00
35989;BME280;22064;42.672;23.282;2023-05-27T04:25:53;94666.69;;;14.99;100.00
35989;BME280;22064;42.672;23.282;2023-05-27T04:28:22;94666.16;;;15.02;100.00
35989;BME280;22064;42.672;23.282;2023-05-27T04:30:49;94676.66;;;15.02;100.00
35989;BME280;22064;42.672;23.282;2023-05-27T04:33:27;94670.03;;;15.15;100.00
35989;BME280;22064;42.672;23.282;2023-05-27T04:35:53;94670.75;;;15.36;100.00
35989;BME280;22064;42.672;23.282;2023-05-27T04:38:24;94670.09;;;14.99;100.00
35989;BME280;22064;42.672;23.282;2023-05-27T04:40:58;94655.00;;;14.71;100.00
35989;BME280;22064;42.672;23.282;2023-05-27T04:43:38;94682.53;;;14.68;100.00
35989;BME280;22064;42.672;23.282;2023-05-27T04:46:07;94687.50;;;14.54;100.00
35989;BME280;22064;42.672;23.282;2023-05-27T04:48:34;94688.56;;;14.43;100.00
35989;BME280;22064;42.672;23.282;2023-05-27T04:51:01;94671.31;;;14.27;100.00
35989;BME280;22064;42.672;23.282;2023-05-27T04:53:28;94683.59;;;14.37;100.00
35989;BME280;22064;42.672;23.282;2023-05-27T04:55:54;94681.22;;;14.35;100.00
35989;BME280;22064;42.672;23.282;2023-05-27T04:58:20;94686.75;;;14.18;100.00
35989;BME280;22064;42.672;23.282;2023-05-27T05:00:48;94696.97;;;14.15;100.00
35989;BME280;22064;42.672;23.282;2023-05-27T05:03:20;94688.56;;;14.07;100.00
35989;BME280;22064;42.672;23.282;2023-05-27T05:06:03;94682.28;;;14.19;100.00
35989;BME280;22064;42.672;23.282;2023-05-27T05:08:29;94687.53;;;14.24;100.00
35989;BME280;22064;42.672;23.282;2023-05-27T05:10:55;94690.94;;;14.40;100.00
35989;BME280;22064;42.672;23.282;2023-05-27T05:13:21;94692.47;;;14.66;100.00
35989;BME280;22064;42.672;23.282;2023-05-27T05:15:48;94686.44;;;14.71;100.00
35989;BME280;22064;42.672;23.282;2023-05-27T05:18:14;94697.44;;;14.78;100.00
35989;BME280;22064;42.672;23.282;2023-05-27T05:20:40;94689.03;;;14.81;100.00
35989;BME280;22064;42.672;23.282;2023-05-27T05:23:08;94686.41;;;14.86;100.00
35989;BME280;22064;42.672;23.282;2023-05-27T05:25:35;94685.59;;;14.91;100.00
35989;BME280;22064;42.672;23.282;2023-05-27T05:28:04;94693.66;;;15.15;100.00
35989;BME280;22064;42.672;23.282;2023-05-27T05:30:30;94697.00;;;15.25;100.00
35989;BME280;22064;42.672;23.282;2023-05-27T05:33:00;94697.28;;;15.19;100.00
35989;BME280;22064;42.672;23.282;2023-05-27T05:35:30;94695.19;;;15.21;100.00
35989;BME280;22064;42.672;23.282;2023-05-27T05:38:09;94694.19;;;15.12;100.00
35989;BME280;22064;42.672;23.282;2023-05-27T05:40:36;94706.53;;;15.11;100.00
35989;BME280;22064;42.672;23.282;2023-05-27T05:43:14;94703.31;;;15.19;100.00
35989;BME280;22064;42.672;23.282;2023-05-27T05:45:40;94710.16;;;15.20;100.00
35989;BME280;22064;42.672;23.282;2023-05-27T05:48:06;94710.94;;;15.16;100.00
35989;BME280;22064;42.672;23.282;2023-05-27T05:50:32;94709.38;;;15.15;100.00
35989;BME280;22064;42.672;23.282;2023-05-27T05:52:59;94675.06;;;15.06;100.00
35989;BME280;22064;42.672;23.282;2023-05-27T05:55:25;94710.28;;;15.44;100.00
35989;BME280;22064;42.672;23.282;2023-05-27T05:57:51;94714.03;;;15.33;100.00
35989;BME280;22064;42.672;23.282;2023-05-27T06:00:17;94713.97;;;15.48;100.00
35989;BME280;22064;42.672;23.282;2023-05-27T06:02:43;94707.00;;;15.13;100.00
35989;BME280;22064;42.672;23.282;2023-05-27T06:05:13;94719.06;;;15.19;100.00
35989;BME280;22064;42.672;23.282;2023-05-27T06:07:38;94717.25;;;15.15;100.00
35989;BME280;22064;42.672;23.282;2023-05-27T06:10:08;94719.31;;;15.23;100.00
35989;BME280;22064;42.672;23.282;2023-05-27T06:12:40;94715.34;;;15.31;100.00
35989;BME280;22064;42.672;23.282;2023-05-27T06:15:07;94721.84;;;15.48;100.00
35989;BME280;22064;42.672;23.282;2023-05-27T06:17:38;94722.34;;;15.51;100.00
35989;BME280;22064;42.672;23.282;2023-05-27T06:20:05;94718.16;;;15.50;100.00
35989;BME280;22064;42.672;23.282;2023-05-27T06:22:33;94723.41;;;15.50;100.00
35989;BME280;22064;42.672;23.282;2023-05-27T06:24:59;94723.56;;;15.63;100.00
35989;BME280;22064;42.672;23.282;2023-05-27T06:27:36;94725.47;;;15.58;100.00
35989;BME280;22064;42.672;23.282;2023-05-27T06:30:02;94729.53;;;15.84;100.00
35989;BME280;22064;42.672;23.282;2023-05-27T06:32:34;94726.09;;;15.89;100.00
35989;BME280;22064;42.672;23.282;2023-05-27T06:35:00;94734.16;;;15.98;100.00
35989;BME280;22064;42.672;23.282;2023-05-27T06:37:26;94729.91;;;16.07;100.00
35989;BME280;22064;42.672;23.282;2023-05-27T06:39:52;94731.75;;;16.06;100.00
35989;BME280;22064;42.672;23.282;2023-05-27T06:42:18;94735.75;;;15.99;100.00
35989;BME280;22064;42.672;23.282;2023-05-27T06:44:54;94721.91;;;16.22;100.00
35989;BME280;22064;42.672;23.282;2023-05-27T06:47:23;94721.34;;;16.59;100.00
35989;BME280;22064;42.672;23.282;2023-05-27T06:49:50;94734.97;;;16.96;100.00
35989;BME280;22064;42.672;23.282;2023-05-27T06:52:16;94733.34;;;16.71;100.00
35989;BME280;22064;42.672;23.282;2023-05-27T06:55:08;94747.50;;;16.75;100.00
35989;BME280;22064;42.672;23.282;2023-05-27T06:57:53;94731.44;;;16.47;100.00
35989;BME280;22064;42.672;23.282;2023-05-27T07:00:29;94737.31;;;16.68;100.00
35989;BME280;22064;42.672;23.282;2023-05-27T07:03:31;94746.00;;;16.98;100.00
35989;BME280;22064;42.672;23.282;2023-05-27T07:05:57;94742.00;;;16.71;100.00
35989;BME280;22064;42.672;23.282;2023-05-27T07:08:25;94737.44;;;17.11;100.00
35989;BME280;22064;42.672;23.282;2023-05-27T07:11:11;94742.84;;;17.63;100.00
35989;BME280;22064;42.672;23.282;2023-05-27T07:13:37;94747.78;;;17.69;100.00
35989;BME280;22064;42.672;23.282;2023-05-27T07:16:05;94740.31;;;17.76;100.00
35989;BME280;22064;42.672;23.282;2023-05-27T07:18:31;94739.28;;;17.77;100.00
35989;BME280;22064;42.672;23.282;2023-05-27T07:20:59;94750.25;;;17.42;100.00
35989;BME280;22064;42.672;23.282;2023-05-27T07:23:26;94754.03;;;17.54;100.00
35989;BME280;22064;42.672;23.282;2023-05-27T07:26:03;94747.63;;;17.61;100.00
35989;BME280;22064;42.672;23.282;2023-05-27T07:28:29;94739.38;;;17.48;100.00
35989;BME280;22064;42.672;23.282;2023-05-27T07:31:05;94754.03;;;17.54;100.00
35989;BME280;22064;42.672;23.282;2023-05-27T07:33:36;94749.91;;;17.67;100.00
35989;BME280;22064;42.672;23.282;2023-05-27T07:36:02;94741.56;;;17.84;100.00
35989;BME280;22064;42.672;23.282;2023-05-27T07:38:28;94751.72;;;18.29;100.00
35989;BME280;22064;42.672;23.282;2023-05-27T07:40:54;94750.50;;;18.40;100.00
35989;BME280;22064;42.672;23.282;2023-05-27T07:43:20;94751.19;;;18.45;100.00
35989;BME280;22064;42.672;23.282;2023-05-27T07:45:46;94744.66;;;18.76;100.00
35989;BME280;22064;42.672;23.282;2023-05-27T07:48:12;94745.19;;;19.05;100.00
35989;BME280;22064;42.672;23.282;2023-05-27T07:50:38;94748.72;;;19.42;100.00
35989;BME280;22064;42.672;23.282;2023-05-27T07:53:10;94760.63;;;19.81;100.00
35989;BME280;22064;42.672;23.282;2023-05-27T07:55:38;94749.09;;;20.13;100.00
35989;BME280;22064;42.672;23.282;2023-05-27T07:58:04;94756.41;;;20.52;100.00
35989;BME280;22064;42.672;23.282;2023-05-27T08:00:42;94752.56;;;20.90;100.00
35989;BME280;22064;42.672;23.282;2023-05-27T08:03:08;94751.63;;;21.17;100.00
35989;BME280;22064;42.672;23.282;2023-05-27T08:05:58;94755.41;;;21.33;100.00
35989;BME280;22064;42.672;23.282;2023-05-27T08:08:41;94755.19;;;21.43;100.00
35989;BME280;22064;42.672;23.282;2023-05-27T08:11:32;94751.00;;;21.20;100.00
35989;BME280;22064;42.672;23.282;2023-05-27T08:14:06;94757.13;;;20.98;100.00
35989;BME280;22064;42.672;23.282;2023-05-27T08:17:08;94755.75;;;21.01;100.00
35989;BME280;22064;42.672;23.282;2023-05-27T08:19:52;94762.28;;;21.34;100.00
35989;BME280;22064;42.672;23.282;2023-05-27T08:22:53;94742.16;;;21.33;100.00
35989;BME280;22064;42.672;23.282;2023-05-27T08:25:19;94747.13;;;21.26;100.00
35989;BME280;22064;42.672;23.282;2023-05-27T08:27:56;94756.25;;;21.42;100.00
35989;BME280;22064;42.672;23.282;2023-05-27T08:30:37;94750.81;;;21.48;100.00
35989;BME280;22064;42.672;23.282;2023-05-27T08:33:09;94758.22;;;21.28;100.00
35989;BME280;22064;42.672;23.282;2023-05-27T08:35:35;94763.75;;;21.18;100.00
35989;BME280;22064;42.672;23.282;2023-05-27T08:38:02;94759.28;;;21.27;100.00
35989;BME280;22064;42.672;23.282;2023-05-27T08:40:32;94749.56;;;21.14;100.00
35989;BME280;22064;42.672;23.282;2023-05-27T08:42:59;94759.00;;;20.97;100.00
35989;BME280;22064;42.672;23.282;2023-05-27T08:45:25;94759.63;;;20.94;100.00
35989;BME280;22064;42.672;23.282;2023-05-27T08:47:53;94758.00;;;20.85;100.00
35989;BME280;22064;42.672;23.282;2023-05-27T08:50:23;94758.69;;;20.68;100.00
35989;BME280;22064;42.672;23.282;2023-05-27T08:52:52;94755.34;;;20.53;100.00
35989;BME280;22064;42.672;23.282;2023-05-27T08:55:20;94759.84;;;20.53;100.00
35989;BME280;22064;42.672;23.282;2023-05-27T08:57:55;94756.88;;;20.55;100.00
35989;BME280;22064;42.672;23.282;2023-05-27T09:00:23;94753.69;;;20.66;100.00
35989;BME280;22064;42.672;23.282;2023-05-27T09:02:51;94748.84;;;20.91;100.00
35989;BME280;22064;42.672;23.282;2023-05-27T09:05:19;94743.25;;;20.92;100.00
35989;BME280;22064;42.672;23.282;2023-05-27T09:07:45;94750.69;;;20.82;100.00
35989;BME280;22064;42.672;23.282;2023-05-27T09:10:11;94753.03;;;20.61;100.00
35989;BME280;22064;42.672;23.282;2023-05-27T09:12:37;94737.09;;;20.52;100.00
35989;BME280;22064;42.672;23.282;2023-05-27T09:15:04;94753.09;;;20.69;100.00
35989;BME280;22064;42.672;23.282;2023-05-27T09:17:30;94755.19;;;20.59;100.00
35989;BME280;22064;42.672;23.282;2023-05-27T09:19:55;94745.88;;;20.61;100.00
35989;BME280;22064;42.672;23.282;2023-05-27T09:22:27;94742.91;;;20.85;100.00
35989;BME280;22064;42.672;23.282;2023-05-27T09:24:54;94747.75;;;21.23;100.00
35989;BME280;22064;42.672;23.282;2023-05-27T09:29:52;94734.59;;;21.49;100.00
35989;BME280;22064;42.672;23.282;2023-05-27T09:32:30;94735.00;;;21.34;100.00
35989;BME280;22064;42.672;23.282;2023-05-27T09:34:59;94731.66;;;21.51;100.00
35989;BME280;22064;42.672;23.282;2023-05-27T09:37:27;94733.53;;;21.50;100.00
35989;BME280;22064;42.672;23.282;2023-05-27T09:40:05;94729.84;;;21.29;100.00
35989;BME280;22064;42.672;23.282;2023-05-27T09:42:44;94728.34;;;21.36;100.00
35989;BME280;22064;42.672;23.282;2023-05-27T09:45:18;94731.59;;;21.02;100.00
35989;BME280;22064;42.672;23.282;2023-05-27T09:47:49;94714.25;;;20.79;100.00
35989;BME280;22064;42.672;23.282;2023-05-27T09:50:16;94725.63;;;21.19;100.00
35989;BME280;22064;42.672;23.282;2023-05-27T09:52:44;94729.59;;;21.39;100.00
35989;BME280;22064;42.672;23.282;2023-05-27T09:55:11;94724.78;;;21.41;100.00
35989;BME280;22064;42.672;23.282;2023-05-27T09:57:39;94721.69;;;21.65;100.00
35989;BME280;22064;42.672;23.282;2023-05-27T10:00:07;94731.47;;;21.38;100.00
35989;BME280;22064;42.672;23.282;2023-05-27T10:02:42;94731.34;;;21.43;100.00
35989;BME280;22064;42.672;23.282;2023-05-27T10:05:10;94735.25;;;21.63;100.00
35989;BME280;22064;42.672;23.282;2023-05-27T10:07:39;94728.25;;;21.59;100.00
35989;BME280;22064;42.672;23.282;2023-05-27T10:10:07;94728.31;;;21.94;100.00
35989;BME280;22064;42.672;23.282;2023-05-27T10:12:35;94725.00;;;22.05;100.00
35989;BME280;22064;42.672;23.282;2023-05-27T10:15:02;94723.47;;;22.39;99.40
35989;BME280;22064;42.672;23.282;2023-05-27T10:17:40;94720.09;;;22.86;96.10
35989;BME280;22064;42.672;23.282;2023-05-27T10:20:06;94714.28;;;23.01;88.92
35989;BME280;22064;42.672;23.282;2023-05-27T10:23:09;94712.72;;;23.38;84.97
35989;BME280;22064;42.672;23.282;2023-05-27T10:25:39;94721.25;;;23.52;86.75
35989;BME280;22064;42.672;23.282;2023-05-27T10:28:06;94715.78;;;23.79;81.08
35989;BME280;22064;42.672;23.282;2023-05-27T10:30:45;94722.16;;;23.57;83.16
35989;BME280;22064;42.672;23.282;2023-05-27T10:33:12;94711.34;;;23.32;80.84
35989;BME280;22064;42.672;23.282;2023-05-27T10:35:42;94708.91;;;23.48;81.42
35989;BME280;22064;42.672;23.282;2023-05-27T10:38:17;94710.63;;;23.52;79.71
35989;BME280;22064;42.672;23.282;2023-05-27T10:40:46;94709.25;;;23.67;80.02
35989;BME280;22064;42.672;23.282;2023-05-27T10:43:17;94703.53;;;24.07;78.64
35989;BME280;22064;42.672;23.282;2023-05-27T10:45:43;94699.25;;;23.94;77.32
35989;BME280;22064;42.672;23.282;2023-05-27T10:48:18;94699.31;;;24.06;74.22
35989;BME280;22064;42.672;23.282;2023-05-27T10:50:52;94701.53;;;23.54;77.10
35989;BME280;22064;42.672;23.282;2023-05-27T10:53:19;94698.41;;;23.51;79.99
35989;BME280;22064;42.672;23.282;2023-05-27T10:55:50;94689.16;;;23.87;76.19
35989;BME280;22064;42.672;23.282;2023-05-27T10:58:16;94692.81;;;24.16;73.88
35989;BME280;22064;42.672;23.282;2023-05-27T11:00:44;94692.22;;;23.68;73.85
35989;BME280;22064;42.672;23.282;2023-05-27T11:03:20;94696.13;;;23.92;74.75
35989;BME280;22064;42.672;23.282;2023-05-27T11:06:04;94687.13;;;23.84;79.18
35989;BME280;22064;42.672;23.282;2023-05-27T11:08:32;94684.31;;;24.02;80.96
35989;BME280;22064;42.672;23.282;2023-05-27T11:11:02;94687.25;;;23.58;77.14
35989;BME280;22064;42.672;23.282;2023-05-27T11:13:30;94673.09;;;23.24;82.39
35989;BME280;22064;42.672;23.282;2023-05-27T11:15:57;94678.59;;;23.49;85.04
35989;BME280;22064;42.672;23.282;2023-05-27T11:18:23;94679.09;;;23.93;80.06
35989;BME280;22064;42.672;23.282;2023-05-27T11:20:49;94668.00;;;23.91;78.21
35989;BME280;22064;42.672;23.282;2023-05-27T11:23:14;94672.66;;;23.94;78.73
35989;BME280;22064;42.672;23.282;2023-05-27T11:25:44;94668.78;;;23.41;76.21
35989;BME280;22064;42.672;23.282;2023-05-27T11:28:16;94667.28;;;23.31;79.73
35989;BME280;22064;42.672;23.282;2023-05-27T11:30:44;94654.47;;;23.03;84.58
35989;BME280;22064;42.672;23.282;2023-05-27T11:33:10;94657.47;;;23.52;84.39
35989;BME280;22064;42.672;23.282;2023-05-27T11:35:36;94654.44;;;23.84;83.86
35989;BME280;22064;42.672;23.282;2023-05-27T11:38:02;94653.63;;;24.04;79.74
35989;BME280;22064;42.672;23.282;2023-05-27T11:40:35;94653.69;;;23.83;78.32
35989;BME280;22064;42.672;23.282;2023-05-27T11:43:02;94648.19;;;23.59;78.23
35989;BME280;22064;42.672;23.282;2023-05-27T11:45:28;94639.88;;;23.60;80.75
35989;BME280;22064;42.672;23.282;2023-05-27T11:47:55;94636.97;;;23.95;78.89
35989;BME280;22064;42.672;23.282;2023-05-27T11:50:21;94627.09;;;24.50;70.20
35989;BME280;22064;42.672;23.282;2023-05-27T11:52:52;94638.75;;;24.70;65.77
35989;BME280;22064;42.672;23.282;2023-05-27T11:55:18;94615.63;;;24.37;61.39
35989;BME280;22064;42.672;23.282;2023-05-27T11:57:44;94628.00;;;24.33;63.75
35989;BME280;22064;42.672;23.282;2023-05-27T12:00:10;94630.88;;;24.15;63.06
35989;BME280;22064;42.672;23.282;2023-05-27T12:02:36;94621.50;;;23.97;66.42
35989;BME280;22064;42.672;23.282;2023-05-27T12:05:03;94629.09;;;24.53;64.73
35989;BME280;22064;42.672;23.282;2023-05-27T12:07:31;94624.47;;;24.74;65.16
35989;BME280;22064;42.672;23.282;2023-05-27T12:09:58;94619.16;;;24.86;65.45
35989;BME280;22064;42.672;23.282;2023-05-27T12:12:23;94620.38;;;24.77;57.65
35989;BME280;22064;42.672;23.282;2023-05-27T12:14:49;94625.34;;;24.66;59.54
35989;BME280;22064;42.672;23.282;2023-05-27T12:17:15;94618.59;;;25.05;56.98
35989;BME280;22064;42.672;23.282;2023-05-27T12:19:41;94617.88;;;25.57;54.32
35989;BME280;22064;42.672;23.282;2023-05-27T12:22:07;94616.41;;;25.60;57.16
35989;BME280;22064;42.672;23.282;2023-05-27T12:24:33;94600.00;;;25.98;53.55
35989;BME280;22064;42.672;23.282;2023-05-27T12:27:00;94597.75;;;25.60;53.25
35989;BME280;22064;42.672;23.282;2023-05-27T12:29:27;94592.47;;;25.35;52.75
35989;BME280;22064;42.672;23.282;2023-05-27T12:31:54;94593.31;;;25.24;55.05
35989;BME280;22064;42.672;23.282;2023-05-27T12:34:21;94585.75;;;24.52;57.68
35989;BME280;22064;42.672;23.282;2023-05-27T12:36:46;94577.97;;;24.84;58.39
35989;BME280;22064;42.672;23.282;2023-05-27T12:39:13;94582.00;;;25.15;58.03
35989;BME280;22064;42.672;23.282;2023-05-27T12:41:39;94553.06;;;25.69;56.08
35989;BME280;22064;42.672;23.282;2023-05-27T12:44:05;94556.72;;;25.77;54.61
35989;BME280;22064;42.672;23.282;2023-05-27T12:46:31;94567.53;;;25.68;53.64
35989;BME280;22064;42.672;23.282;2023-05-27T12:48:57;94561.00;;;25.53;54.05
35989;BME280;22064;42.672;23.282;2023-05-27T12:51:23;94559.28;;;25.45;54.72
35989;BME280;22064;42.672;23.282;2023-05-27T12:53:49;94559.31;;;25.33;56.24
35989;BME280;22064;42.672;23.282;2023-05-27T12:56:15;94562.06;;;25.37;55.91
35989;BME280;22064;42.672;23.282;2023-05-27T12:58:40;94559.63;;;25.72;56.39